Klondike, Illinois
Current Conditions -  °F | °C
As of 1:35 PM on Friday 31 Oct 2014 (Local Time) from KCIR Reporting Station
Scattered Clouds Scattered Clouds  
Wind Chill: 51°   Ceiling: Unl
Heat Index: 51°   Visibility: 10mi
Dew Point: 28°   Wind: 22mph
Humidity: 40%   Direction: 330°NNW
Pressure: 30.18"   Gusts: 33mph
Location:  37.048°N, 89.2036°W
Report Text: KCIR 311835Z AUTO 33019G29KT 10SM SCT050 11/M02 A3018 RMK AO2 T01081024
Loading
Personal Weather Stations






























Interactive Weather Map
Tropical Storm Tracking
New forecast layout! Learn more

10-Day Weather Forecast

Advertisements
Track Severe Weather on mobile